KMKL Airport (Mc Kellar-Sipes Rgnl) Information

FAA: MKL - ICAO: KMKL

KMKL Airport Location

State Tennessee
County Madison
City Jackson
KMKL Airport is 4 miles west of Jackson, TN.
Latitude 35-35-59.6000N
Longitude 088-54-56.2000W
Elevation 433ft

KMKL Airport METARs

METAR KMKL 060753Z AUTO 21006KT 10SM CLR 26/24 A2996 RMK AO2 SLP138 T02610239
Altimeter 29.96"
Temperature 26.1°C (79.0°F)
Wind 210° at 6KT
Clouds Skies are clear.
Visibility 10.0mi
Time observed: 2022-07-06T07:53:00Z

KMKL Airport Details

Status Operational
Activation July 1942
Ownership Public
Usage Public
Chart MEMPHIS
ATC on-site Yes
Beacon schedule sunset-sunrise
Beacon color clear green

KMKL Airport Contacts

Owner CITY OF JACKSON & MADISON CO
Owner address 308 GRADY MONTGOMERY DR, JACKSON, TN 38301
Owner phone 731-423-0995
Manager MARK COBB
Manager address 37 AIRPORT RD, FAYETTEVILLE, TN 37334
Manager phone 931-433-1960

KMKL Airport (Mc Kellar-Sipes Rgnl) Radio Frequencies

KMKL (Airport) Radio Frequencies

UNICOM 122.95
Common traffic advisory frequency (CTAF) 127.15